Time;durP1;ratioP1;P1;durP2;ratioP2;P2;SDS_P1;SDS_P2;PMS_P1;PMS_P2;Temp;Humidity;BMP_temperature;BMP_pressure;BME280_temperature;BME280_humidity;BME280_pressure;Samples;Min_cycle;Max_cycle;Signal;HPM_P1;HPM_P2
2023/09/12 00:01:06;;;;;;;7.80;6.95;;;16.60;99.90;;;;;;5049661;28;20131;-32
2023/09/12 00:03:32;;;;;;;8.38;6.63;;;16.60;99.90;;;;;;5052253;28;20052;-31
2023/09/12 00:06:00;;;;;;;8.02;6.38;;;16.60;99.90;;;;;;5061345;28;20082;-34
2023/09/12 00:08:26;;;;;;;8.10;6.57;;;16.60;99.90;;;;;;5043723;28;20040;-33
2023/09/12 00:11:10;;;;;;;8.85;6.57;;;16.50;99.90;;;;;;5046393;28;20087;-31
2023/09/12 00:13:36;;;;;;;9.20;6.55;;;16.50;99.90;;;;;;5048405;28;20024;-30
2023/09/12 00:16:02;;;;;;;8.60;6.35;;;16.50;99.90;;;;;;5028730;28;20123;-34
2023/09/12 00:18:28;;;;;;;9.15;6.85;;;16.30;99.90;;;;;;5027048;28;21595;-37
2023/09/12 00:20:54;;;;;;;11.77;6.47;;;16.20;99.90;;;;;;5037473;28;20061;-32
2023/09/12 00:23:21;;;;;;;6.03;5.30;;;16.20;99.90;;;;;;5025969;28;20494;-35
2023/09/12 00:25:47;;;;;;;6.63;5.10;;;15.90;99.90;;;;;;5032581;28;20033;-34
2023/09/12 00:28:13;;;;;;;5.82;4.70;;;15.90;99.90;;;;;;5024422;28;21491;-34
2023/09/12 00:30:39;;;;;;;6.05;5.28;;;15.90;99.90;;;;;;5031039;28;20037;-33
2023/09/12 00:33:04;;;;;;;6.50;5.75;;;16.00;99.90;;;;;;5040394;28;20033;-31
2023/09/12 00:35:30;;;;;;;7.57;5.60;;;15.80;99.90;;;;;;5027062;28;21048;-37
2023/09/12 00:37:56;;;;;;;7.72;6.38;;;15.80;99.90;;;;;;5023420;28;20036;-34
2023/09/12 00:40:22;;;;;;;8.48;6.35;;;15.70;99.90;;;;;;5026758;28;20685;-30
2023/09/12 00:42:47;;;;;;;8.38;6.63;;;15.70;99.90;;;;;;5020923;28;20055;-32
2023/09/12 00:45:13;;;;;;;8.68;5.65;;;15.70;99.90;;;;;;5038678;28;20038;-38
2023/09/12 00:47:39;;;;;;;10.48;7.50;;;15.70;99.90;;;;;;5052077;28;20033;-36
2023/09/12 00:50:05;;;;;;;9.50;7.32;;;15.70;99.90;;;;;;5022178;28;20025;-35
2023/09/12 00:52:35;;;;;;;10.60;6.80;;;15.60;99.90;;;;;;5021120;28;20032;-39
2023/09/12 00:55:01;;;;;;;7.35;6.45;;;15.50;99.90;;;;;;5018843;28;20032;-36
2023/09/12 00:57:27;;;;;;;9.40;6.63;;;15.50;99.90;;;;;;5038011;28;20036;-41
2023/09/12 00:59:53;;;;;;;7.85;6.35;;;15.60;99.90;;;;;;5046120;28;21007;-34
2023/09/12 01:02:20;;;;;;;8.38;5.68;;;15.50;99.90;;;;;;5046792;28;20033;-40
2023/09/12 01:04:47;;;;;;;8.05;6.50;;;15.60;99.90;;;;;;5046833;28;20045;-32
2023/09/12 01:07:14;;;;;;;7.53;6.50;;;15.70;99.90;;;;;;5044359;28;20075;-38
2023/09/12 01:09:40;;;;;;;7.25;6.07;;;15.70;99.90;;;;;;5048083;28;20119;-35
2023/09/12 01:12:07;;;;;;;8.18;6.50;;;15.80;99.90;;;;;;5042624;28;20383;-32
2023/09/12 01:14:33;;;;;;;9.90;6.10;;;15.80;99.90;;;;;;5044048;28;20039;-33
2023/09/12 01:17:03;;;;;;;8.27;7.05;;;15.80;99.90;;;;;;5069218;28;20037;-36
2023/09/12 01:19:29;;;;;;;9.18;7.07;;;15.80;99.90;;;;;;5028623;28;20541;-32
2023/09/12 01:22:27;;;;;;;8.15;6.22;;;15.80;99.90;;;;;;5040085;28;20395;-35
2023/09/12 01:25:15;;;;;;;10.55;7.18;;;15.80;99.90;;;;;;5043290;28;20080;-32
2023/09/12 01:27:45;;;;;;;10.23;6.57;;;15.80;99.90;;;;;;5072339;28;20029;-38
2023/09/12 01:30:14;;;;;;;6.57;5.78;;;15.70;99.90;;;;;;5052535;28;20061;-35
2023/09/12 01:32:41;;;;;;;7.57;5.47;;;15.60;99.90;;;;;;5042871;28;20033;-32
2023/09/12 01:35:08;;;;;;;7.13;5.78;;;15.50;99.90;;;;;;5044372;28;20116;-34
2023/09/12 01:37:34;;;;;;;8.07;6.88;;;15.50;99.90;;;;;;5041709;28;20528;-32
2023/09/12 01:40:03;;;;;;;7.43;6.38;;;15.60;99.90;;;;;;5045367;28;20128;-32
2023/09/12 01:42:36;;;;;;;8.98;6.95;;;15.60;99.90;;;;;;5027366;28;20108;-36
2023/09/12 01:45:04;;;;;;;9.45;6.47;;;15.40;99.90;;;;;;5043230;28;20021;-35
2023/09/12 01:47:31;;;;;;;;;;;15.20;99.90;;;;;;5030726;28;20032;-32
2023/09/12 01:50:01;;;;;;;6.72;6.05;;;15.10;99.90;;;;;;5035424;28;19920;-37
2023/09/12 01:52:28;;;;;;;7.07;6.18;;;15.10;99.90;;;;;;5058323;28;20501;-31
2023/09/12 01:54:55;;;;;;;6.72;5.65;;;15.10;99.90;;;;;;5018860;28;20241;-38
2023/09/12 01:57:21;;;;;;;5.82;5.22;;;15.00;99.90;;;;;;5020140;28;22221;-34
2023/09/12 01:59:51;;;;;;;7.20;6.10;;;15.00;99.90;;;;;;5041959;28;20053;-40
2023/09/12 02:02:17;;;;;;;8.55;6.65;;;15.10;99.90;;;;;;5033711;28;20045;-36
2023/09/12 02:05:02;;;;;;;9.45;6.78;;;15.20;99.90;;;;;;5024265;28;20043;-38
2023/09/12 02:07:31;;;;;;;8.18;6.60;;;15.20;99.90;;;;;;5057175;28;20479;-40
2023/09/12 02:09:58;;;;;;;8.57;6.72;;;15.20;99.90;;;;;;5023613;28;20029;-38
2023/09/12 02:12:24;;;;;;;8.63;7.18;;;15.20;99.90;;;;;;5022707;28;20021;-39
2023/09/12 02:14:50;;;;;;;8.07;6.70;;;15.10;99.90;;;;;;5025134;28;20029;-36
2023/09/12 02:17:17;;;;;;;9.85;7.30;;;15.10;99.90;;;;;;5029496;28;20033;-39
2023/09/12 02:19:46;;;;;;;10.05;6.88;;;15.20;99.90;;;;;;5031752;28;20041;-40
2023/09/12 02:22:13;;;;;;;8.18;6.63;;;15.20;99.90;;;;;;5062521;28;20505;-38
2023/09/12 02:24:39;;;;;;;7.30;6.18;;;15.20;99.90;;;;;;5046828;28;20048;-40
2023/09/12 02:27:05;;;;;;;9.80;6.97;;;15.20;99.90;;;;;;5029489;28;20146;-38
2023/09/12 02:29:33;;;;;;;10.40;7.70;;;15.20;99.90;;;;;;5029585;28;20021;-40
2023/09/12 02:31:59;;;;;;;8.18;6.80;;;15.20;99.90;;;;;;5057906;28;20514;-35
2023/09/12 02:34:26;;;;;;;9.02;7.15;;;15.10;99.90;;;;;;5033063;28;20151;-40
2023/09/12 02:36:53;;;;;;;8.40;7.05;;;15.10;99.90;;;;;;5044645;28;20672;-39
2023/09/12 02:39:18;;;;;;;9.40;7.25;;;15.10;99.90;;;;;;5063991;28;20511;-35
2023/09/12 02:41:45;;;;;;;8.63;7.18;;;15.20;99.90;;;;;;5048761;28;20055;-38
2023/09/12 02:44:12;;;;;;;9.63;7.15;;;15.10;99.90;;;;;;5045465;28;20051;-39
2023/09/12 02:46:38;;;;;;;8.88;7.25;;;15.10;99.90;;;;;;5062292;28;20021;-40
2023/09/12 02:49:04;;;;;;;11.60;7.22;;;14.90;99.90;;;;;;5046425;28;20460;-39
2023/09/12 02:51:32;;;;;;;10.13;7.22;;;14.80;99.90;;;;;;5030077;28;20074;-38
2023/09/12 02:53:57;;;;;;;10.82;7.18;;;14.80;99.90;;;;;;5048103;28;20043;-40
2023/09/12 02:56:24;;;;;;;9.52;7.30;;;14.90;99.90;;;;;;5045038;28;20382;-42
2023/09/12 02:58:52;;;;;;;8.50;7.35;;;14.90;99.90;;;;;;5048221;28;20083;-38
2023/09/12 03:01:20;;;;;;;10.30;6.97;;;14.90;99.90;;;;;;5072212;28;20057;-35
2023/09/12 03:03:50;;;;;;;10.05;7.60;;;14.90;99.90;;;;;;5049120;28;20060;-36
2023/09/12 03:06:20;;;;;;;10.60;6.90;;;14.80;99.90;;;;;;5073407;28;20356;-35
2023/09/12 03:08:47;;;;;;;8.73;6.68;;;14.80;99.90;;;;;;5059752;28;20680;-40
2023/09/12 03:11:16;;;;;;;9.15;6.60;;;14.70;99.90;;;;;;5044680;28;20028;-39
2023/09/12 03:13:42;;;;;;;6.38;5.78;;;14.50;99.90;;;;;;5046049;28;20029;-39
2023/09/12 03:16:14;;;;;;;6.47;5.88;;;14.30;99.90;;;;;;5048563;28;20036;-38
2023/09/12 03:18:41;;;;;;;8.02;6.00;;;14.30;99.90;;;;;;5051106;28;20118;-41
2023/09/12 03:21:07;;;;;;;7.80;5.80;;;14.30;99.90;;;;;;5047716;28;20085;-38
2023/09/12 03:23:32;;;;;;;7.68;5.80;;;14.30;99.90;;;;;;5045376;28;20028;-40
2023/09/12 03:26:05;;;;;;;7.78;6.15;;;14.40;99.90;;;;;;5047052;28;20064;-36
2023/09/12 03:28:32;;;;;;;6.78;5.57;;;14.40;99.90;;;;;;5041328;28;20032;-36
2023/09/12 03:31:14;;;;;;;6.78;6.07;;;14.50;99.90;;;;;;5051940;28;20041;-36
2023/09/12 03:33:41;;;;;;;8.63;6.82;;;14.50;99.90;;;;;;5048074;28;20851;-39
2023/09/12 03:36:13;;;;;;;9.18;6.60;;;14.50;99.90;;;;;;5073129;28;20111;-41
2023/09/12 03:38:40;;;;;;;8.18;6.95;;;14.60;99.90;;;;;;5044265;28;20059;-40
2023/09/12 03:41:06;;;;;;;7.55;6.72;;;14.50;99.90;;;;;;5048521;28;20029;-41
2023/09/12 03:43:33;;;;;;;8.65;6.68;;;14.50;99.90;;;;;;5045527;28;20059;-40
2023/09/12 03:46:00;;;;;;;8.53;6.70;;;14.50;99.90;;;;;;5045783;28;20632;-38
2023/09/12 03:48:27;;;;;;;10.55;7.57;;;14.50;99.90;;;;;;5078455;28;20297;-40
2023/09/12 03:50:53;;;;;;;7.78;6.88;;;14.50;99.90;;;;;;5047168;28;20029;-40
2023/09/12 03:53:20;;;;;;;10.80;6.47;;;14.40;99.90;;;;;;5046198;28;20032;-38
2023/09/12 03:55:47;;;;;;;7.60;6.80;;;14.30;99.90;;;;;;5046047;28;20032;-40
2023/09/12 03:58:15;;;;;;;6.60;5.70;;;14.40;99.90;;;;;;5046908;28;20044;-40
2023/09/12 04:00:41;;;;;;;7.03;6.18;;;14.40;99.90;;;;;;5045297;28;20040;-38
2023/09/12 04:03:08;;;;;;;10.50;7.22;;;14.30;99.90;;;;;;5072047;28;20400;-36
2023/09/12 04:05:35;;;;;;;8.77;6.28;;;14.30;99.90;;;;;;5041827;28;20032;-40
2023/09/12 04:08:01;;;;;;;6.55;5.85;;;14.40;99.90;;;;;;5044977;28;20021;-38
2023/09/12 04:10:28;;;;;;;10.10;6.45;;;14.40;99.90;;;;;;5041264;28;20025;-39
2023/09/12 04:12:54;;;;;;;7.80;6.75;;;14.30;99.90;;;;;;5062487;28;20488;-40
2023/09/12 04:15:21;;;;;;;9.80;7.57;;;14.30;99.90;;;;;;5047275;28;20035;-40
2023/09/12 04:17:48;;;;;;;9.18;7.85;;;14.30;99.90;;;;;;5045799;28;20037;-39
2023/09/12 04:20:15;;;;;;;8.43;7.50;;;14.30;99.90;;;;;;5043279;28;20032;-40
2023/09/12 04:22:45;;;;;;;8.13;6.90;;;14.30;99.90;;;;;;5049006;28;20379;-38
2023/09/12 04:25:12;;;;;;;9.00;7.22;;;14.40;99.90;;;;;;5042780;28;20040;-41
2023/09/12 04:27:38;;;;;;;9.43;7.45;;;14.40;99.90;;;;;;5046763;28;20062;-40
2023/09/12 04:30:05;;;;;;;8.88;7.05;;;14.40;99.90;;;;;;5038194;28;20608;-39
2023/09/12 04:32:32;;;;;;;10.40;7.72;;;14.30;99.90;;;;;;5039649;28;20039;-37
2023/09/12 04:34:58;;;;;;;10.80;8.55;;;14.30;99.90;;;;;;5070597;28;20029;-37
2023/09/12 04:37:24;;;;;;;7.90;7.07;;;14.30;99.90;;;;;;5040304;28;20030;-31
2023/09/12 04:39:49;;;;;;;8.68;6.82;;;14.40;99.90;;;;;;5059879;28;20410;-32
2023/09/12 04:42:15;;;;;;;9.73;7.63;;;14.40;99.90;;;;;;5047631;28;20094;-31
2023/09/12 04:44:41;;;;;;;7.50;6.78;;;14.30;99.90;;;;;;5049564;28;20044;-31
2023/09/12 04:47:08;;;;;;;7.95;7.15;;;14.30;99.90;;;;;;5043281;28;20443;-34
2023/09/12 04:49:33;;;;;;;7.95;7.15;;;14.30;99.90;;;;;;5046320;28;20090;-30
2023/09/12 04:51:59;;;;;;;11.63;7.13;;;14.30;99.90;;;;;;5047529;28;20021;-33
2023/09/12 04:54:25;;;;;;;9.85;7.63;;;14.30;99.90;;;;;;5047132;28;20037;-30
2023/09/12 04:56:50;;;;;;;8.75;6.97;;;14.10;99.90;;;;;;5045693;28;20033;-30
2023/09/12 04:59:16;;;;;;;7.65;6.80;;;14.10;99.90;;;;;;5046816;28;20075;-31
2023/09/12 05:01:42;;;;;;;9.55;7.57;;;14.10;99.90;;;;;;5040303;28;20052;-35
2023/09/12 05:04:09;;;;;;;10.00;8.25;;;14.10;99.90;;;;;;5046879;28;20379;-30
2023/09/12 05:06:35;;;;;;;8.90;7.97;;;14.00;99.90;;;;;;5030604;28;20518;-31
2023/09/12 05:09:01;;;;;;;10.18;8.02;;;14.00;99.90;;;;;;5022746;28;20035;-35
2023/09/12 05:11:26;;;;;;;9.63;8.15;;;14.00;99.90;;;;;;5032892;28;20033;-35
2023/09/12 05:13:52;;;;;;;9.45;7.32;;;14.10;99.90;;;;;;5047142;28;20085;-30
2023/09/12 05:16:18;;;;;;;10.43;8.05;;;14.10;99.90;;;;;;5041413;28;20118;-35
2023/09/12 05:18:44;;;;;;;7.75;6.30;;;14.10;99.90;;;;;;5047882;28;20485;-33
2023/09/12 05:21:09;;;;;;;8.27;6.65;;;14.10;99.90;;;;;;5058401;28;20037;-29
2023/09/12 05:23:35;;;;;;;8.90;6.55;;;14.10;99.90;;;;;;5046255;28;20478;-32
2023/09/12 05:26:01;;;;;;;8.48;7.22;;;14.10;99.90;;;;;;5046966;28;20025;-36
2023/09/12 05:28:27;;;;;;;10.80;7.80;;;14.20;99.90;;;;;;5045151;28;20020;-31
2023/09/12 05:30:53;;;;;;;10.98;7.93;;;14.20;99.90;;;;;;5032549;28;20564;-33
2023/09/12 05:33:22;;;;;;;11.35;7.97;;;14.20;99.90;;;;;;5044769;28;20024;-35
2023/09/12 05:35:48;;;;;;;9.93;7.50;;;14.20;99.90;;;;;;5044136;28;20036;-33
2023/09/12 05:38:15;;;;;;;11.00;6.85;;;14.20;99.90;;;;;;5043609;28;20056;-34
2023/09/12 05:40:42;;;;;;;10.68;7.50;;;14.30;99.90;;;;;;5043062;28;20028;-32
2023/09/12 05:43:08;;;;;;;10.00;8.07;;;14.30;99.90;;;;;;5041926;28;20052;-32
2023/09/12 05:45:35;;;;;;;10.15;7.47;;;14.20;99.90;;;;;;5038634;28;20079;-39
2023/09/12 05:48:03;;;;;;;12.43;8.55;;;14.20;99.90;;;;;;5044351;28;20028;-36
2023/09/12 05:50:29;;;;;;;8.05;6.88;;;14.30;99.90;;;;;;5042906;28;20059;-40
2023/09/12 05:52:56;;;;;;;8.60;6.95;;;14.30;99.90;;;;;;5044428;28;20036;-40
2023/09/12 05:55:24;;;;;;;10.00;7.72;;;14.40;99.90;;;;;;5070022;28;20373;-36
2023/09/12 05:57:52;;;;;;;9.68;7.75;;;14.40;99.90;;;;;;5043561;28;21042;-40
2023/09/12 06:00:19;;;;;;;10.23;7.85;;;14.50;99.90;;;;;;5043191;28;20161;-38
2023/09/12 06:02:47;;;;;;;10.18;7.55;;;14.50;99.90;;;;;;5042149;28;20037;-40
2023/09/12 06:05:13;;;;;;;12.70;8.70;;;14.60;99.90;;;;;;5067344;28;20448;-34
2023/09/12 06:07:40;;;;;;;11.80;8.32;;;14.70;99.90;;;;;;5071949;28;21855;-39
2023/09/12 06:10:08;;;;;;;11.73;9.15;;;14.80;99.90;;;;;;5046144;28;20024;-37
2023/09/12 06:12:36;;;;;;;12.77;9.80;;;14.80;99.90;;;;;;5046218;28;20083;-40
2023/09/12 06:15:03;;;;;;;14.07;10.10;;;14.90;99.90;;;;;;5043876;28;21478;-37
2023/09/12 06:17:30;;;;;;;13.38;9.52;;;15.10;99.90;;;;;;5062407;28;20064;-39
2023/09/12 06:19:57;;;;;;;11.38;9.32;;;15.20;99.90;;;;;;5069667;28;20037;-40
2023/09/12 06:22:23;;;;;;;13.27;10.73;;;15.20;99.90;;;;;;5045913;28;20075;-38
2023/09/12 06:24:53;;;;;;;14.27;9.93;;;15.30;99.90;;;;;;5045989;28;20128;-38
2023/09/12 06:27:20;;;;;;;13.90;9.55;;;15.40;99.90;;;;;;5069287;28;20039;-40
2023/09/12 06:29:48;;;;;;;13.82;10.00;;;15.60;99.90;;;;;;5058286;28;20028;-40
2023/09/12 06:32:15;;;;;;;15.35;10.35;;;15.70;99.90;;;;;;5040905;28;20037;-40
2023/09/12 06:34:42;;;;;;;14.95;10.07;;;15.80;99.90;;;;;;5052713;28;20029;-37
2023/09/12 06:37:08;;;;;;;14.85;10.57;;;15.80;99.90;;;;;;5040296;28;20140;-36
2023/09/12 06:39:34;;;;;;;15.48;11.38;;;16.00;99.90;;;;;;5046221;28;20113;-40
2023/09/12 06:41:59;;;;;;;15.95;11.43;;;16.00;99.90;;;;;;5044013;28;20032;-38
2023/09/12 06:44:25;;;;;;;14.77;11.23;;;16.10;99.90;;;;;;5044977;28;20133;-32
2023/09/12 06:46:51;;;;;;;14.38;10.63;;;16.20;99.90;;;;;;5066191;28;20025;-30
2023/09/12 06:49:16;;;;;;;14.80;10.57;;;16.30;99.90;;;;;;5043381;28;20388;-29
2023/09/12 06:51:42;;;;;;;19.88;11.52;;;16.40;99.90;;;;;;5047041;28;20779;-30
2023/09/12 06:54:08;;;;;;;14.93;11.73;;;16.50;99.90;;;;;;5046253;28;20394;-41
2023/09/12 06:56:37;;;;;;;14.02;10.98;;;16.60;99.90;;;;;;5039814;28;20135;-41
2023/09/12 06:59:04;;;;;;;14.27;10.43;;;16.70;99.90;;;;;;5041107;28;20167;-41
2023/09/12 07:01:30;;;;;;;15.05;11.18;;;16.80;99.90;;;;;;5052396;28;20041;-41
2023/09/12 07:03:56;;;;;;;15.05;11.38;;;16.90;99.90;;;;;;5046839;28;20039;-40
2023/09/12 07:06:22;;;;;;;14.68;11.05;;;16.90;99.90;;;;;;5048732;28;20170;-37
2023/09/12 07:08:47;;;;;;;15.57;11.40;;;17.00;99.90;;;;;;5065180;28;20040;-41
2023/09/12 07:11:13;;;;;;;15.13;11.43;;;17.10;99.90;;;;;;5044272;28;20029;-38
2023/09/12 07:13:38;;;;;;;15.32;11.90;;;17.20;99.90;;;;;;5047947;28;20029;-41
2023/09/12 07:16:05;;;;;;;14.48;10.90;;;17.40;99.90;;;;;;5050704;28;20079;-36
2023/09/12 07:18:34;;;;;;;18.73;12.00;;;17.60;99.90;;;;;;5051559;28;20044;-35
2023/09/12 07:21:02;;;;;;;13.43;10.57;;;17.80;99.90;;;;;;5045448;28;20040;-41
2023/09/12 07:23:28;;;;;;;;;;;17.90;99.90;;;;;;5054987;28;20530;-41
2023/09/12 07:25:55;;;;;;;17.92;10.82;;;18.00;99.90;;;;;;5073416;28;20278;-39
2023/09/12 07:28:21;;;;;;;15.60;11.07;;;18.10;99.90;;;;;;5052567;28;20032;-40
2023/09/12 07:30:47;;;;;;;19.88;11.55;;;18.30;99.90;;;;;;5037846;28;20034;-41
2023/09/12 07:33:12;;;;;;;13.90;11.00;;;18.50;99.90;;;;;;5049990;28;20025;-39
2023/09/12 07:35:38;;;;;;;13.85;10.18;;;18.60;99.90;;;;;;5045874;28;20062;-41
2023/09/12 07:38:04;;;;;;;14.82;10.73;;;18.70;99.90;;;;;;5046565;28;20650;-40
2023/09/12 07:40:30;;;;;;;13.65;10.23;;;18.90;99.90;;;;;;5047455;28;20036;-41
2023/09/12 07:42:55;;;;;;;14.05;10.55;;;19.00;99.90;;;;;;5050192;28;20119;-41
2023/09/12 07:45:21;;;;;;;13.80;9.82;;;19.20;99.90;;;;;;5048048;28;20047;-38
2023/09/12 07:47:47;;;;;;;11.73;9.80;;;19.40;99.90;;;;;;5065702;28;20036;-40
2023/09/12 07:50:13;;;;;;;11.88;10.20;;;19.50;99.90;;;;;;5048282;28;20108;-40
2023/09/12 07:52:38;;;;;;;13.13;9.88;;;19.70;99.90;;;;;;5048545;28;20029;-41
2023/09/12 07:55:04;;;;;;;11.57;10.05;;;19.80;99.90;;;;;;5049805;28;20465;-40
2023/09/12 07:57:30;;;;;;;11.65;9.57;;;20.00;99.90;;;;;;5051150;28;20099;-38
2023/09/12 07:59:57;;;;;;;12.50;9.07;;;20.30;99.90;;;;;;5043277;28;20045;-40
2023/09/12 08:02:23;;;;;;;11.05;9.25;;;20.60;99.90;;;;;;5043155;28;20098;-41
2023/09/12 08:04:54;;;;;;;11.05;9.05;;;20.70;99.90;;;;;;5049672;28;20107;-33
2023/09/12 08:07:20;;;;;;;11.43;9.50;;;20.90;99.90;;;;;;5061503;28;20029;-33
2023/09/12 08:09:55;;;;;;;10.48;8.27;;;21.10;99.90;;;;;;5049335;28;20025;-34
2023/09/12 08:12:22;;;;;;;10.77;8.27;;;21.40;99.90;;;;;;5061937;28;20506;-34
2023/09/12 08:14:48;;;;;;;11.57;8.85;;;21.60;99.90;;;;;;5065433;28;20478;-32
2023/09/12 08:17:14;;;;;;;12.23;8.75;;;21.90;99.90;;;;;;5047692;28;20399;-34
2023/09/12 08:19:40;;;;;;;11.13;8.40;;;22.10;99.90;;;;;;5040773;28;20083;-32
2023/09/12 08:22:07;;;;;;;10.25;8.50;;;22.20;99.90;;;;;;5046740;28;20710;-32
2023/09/12 08:24:33;;;;;;;9.85;8.73;;;22.30;99.90;;;;;;5057065;28;20095;-32
2023/09/12 08:26:59;;;;;;;9.77;8.40;;;22.50;99.90;;;;;;5048261;28;20094;-33
2023/09/12 08:29:25;;;;;;;10.23;7.78;;;22.60;99.90;;;;;;5047052;28;20759;-36
2023/09/12 08:31:52;;;;;;;9.07;7.75;;;22.70;99.90;;;;;;5058856;28;20052;-31
2023/09/12 08:34:18;;;;;;;11.98;8.05;;;22.90;99.90;;;;;;5055568;28;20052;-33
2023/09/12 08:36:43;;;;;;;10.60;8.70;;;23.10;99.90;;;;;;5045020;28;20071;-31
2023/09/12 08:39:13;;;;;;;9.75;8.75;;;23.20;99.90;;;;;;5036648;28;20059;-38
2023/09/12 08:41:39;;;;;;;9.75;8.25;;;23.20;99.90;;;;;;5025639;28;20033;-33
2023/09/12 08:44:05;;;;;;;13.73;8.35;;;23.40;99.90;;;;;;5041411;28;20094;-33
2023/09/12 08:46:31;;;;;;;7.57;6.78;;;23.50;99.90;;;;;;5058431;28;20024;-31
2023/09/12 08:48:58;;;;;;;9.15;7.88;;;23.70;99.90;;;;;;5070214;28;20035;-38
2023/09/12 08:51:23;;;;;;;9.05;7.45;;;24.00;99.90;;;;;;5046188;28;20027;-33
2023/09/12 08:53:53;;;;;;;7.60;6.80;;;24.20;99.90;;;;;;5044604;28;20028;-34
2023/09/12 08:56:19;;;;;;;8.35;7.45;;;24.30;99.90;;;;;;5063306;28;20059;-32
2023/09/12 08:58:47;;;;;;;8.63;7.45;;;24.40;99.90;;;;;;5047703;28;20078;-32
2023/09/12 09:01:13;;;;;;;;;;;24.70;99.90;;;;;;5039667;28;20090;-38
2023/09/12 09:03:41;;;;;;;9.18;7.25;;;24.80;99.90;;;;;;5042403;28;19928;-41
2023/09/12 09:06:08;;;;;;;9.98;7.32;;;24.80;99.90;;;;;;5038293;28;20433;-40
2023/09/12 09:08:34;;;;;;;10.10;7.50;;;24.80;99.90;;;;;;5048009;28;20548;-39
2023/09/12 09:11:05;;;;;;;9.35;7.53;;;24.90;99.90;;;;;;5044012;28;20029;-35
2023/09/12 09:13:34;;;;;;;8.75;7.88;;;25.00;99.90;;;;;;5036685;28;20056;-34
2023/09/12 09:16:18;;;;;;;8.77;7.88;;;24.90;99.90;;;;;;5038013;28;20087;-35
2023/09/12 09:18:51;;;;;;;8.32;7.53;;;25.10;99.90;;;;;;5038870;28;20029;-31
2023/09/12 09:21:24;;;;;;;8.07;7.28;;;25.30;99.90;;;;;;5038230;28;20506;-31
2023/09/12 09:23:50;;;;;;;8.60;7.70;;;25.50;99.90;;;;;;5043076;28;20061;-31
2023/09/12 09:26:15;;;;;;;8.20;7.20;;;25.60;99.90;;;;;;5046184;28;20127;-33
2023/09/12 09:28:41;;;;;;;10.68;8.15;;;25.60;99.90;;;;;;5062089;28;20028;-33
2023/09/12 09:31:13;;;;;;;8.38;7.45;;;25.90;99.90;;;;;;5042961;28;20129;-35
2023/09/12 09:33:51;;;;;;;8.85;7.43;;;25.90;99.90;;;;;;5046654;28;20769;-37
2023/09/12 09:36:16;;;;;;;;;;;26.10;99.90;;;;;;5043432;28;20025;-33
2023/09/12 09:38:43;;;;;;;9.07;7.22;;;26.10;99.90;;;;;;5046042;28;19966;-31
2023/09/12 09:41:09;;;;;;;10.93;7.80;;;26.20;99.90;;;;;;5045726;28;21824;-32
2023/09/12 09:43:35;;;;;;;9.57;7.80;;;26.10;99.90;;;;;;5064652;28;20033;-32
2023/09/12 09:46:02;;;;;;;8.52;7.28;;;26.20;99.90;;;;;;5039156;28;20829;-33
2023/09/12 09:48:31;;;;;;;9.45;8.00;;;26.10;99.90;;;;;;5042143;28;20049;-31
2023/09/12 09:51:04;;;;;;;11.88;7.75;;;26.20;99.90;;;;;;5041979;28;20032;-36
2023/09/12 09:53:32;;;;;;;9.60;8.63;;;26.10;99.90;;;;;;5033892;28;20393;-31
2023/09/12 09:56:11;;;;;;;9.80;8.00;;;25.90;99.90;;;;;;5037163;28;20048;-36
2023/09/12 09:58:49;;;;;;;8.70;7.55;;;26.00;99.90;;;;;;5037313;28;20549;-33
2023/09/12 10:01:28;;;;;;;10.55;7.78;;;25.90;99.90;;;;;;5041617;28;20477;-35
2023/09/12 10:03:57;;;;;;;9.85;8.25;;;25.70;99.90;;;;;;5043478;28;20787;-36
2023/09/12 10:06:24;;;;;;;8.70;7.90;;;25.60;99.90;;;;;;5038909;28;20581;-32
2023/09/12 10:08:54;;;;;;;10.85;8.15;;;25.60;99.90;;;;;;5045453;28;20524;-31
2023/09/12 10:11:27;;;;;;;9.85;8.30;;;25.90;99.90;;;;;;5036374;28;20029;-36
2023/09/12 10:13:59;;;;;;;9.65;8.32;;;26.10;99.90;;;;;;5036409;28;20359;-36
2023/09/12 10:16:30;;;;;;;11.65;8.35;;;26.30;99.90;;;;;;5037307;28;20032;-41
2023/09/12 10:19:03;;;;;;;8.90;8.02;;;26.10;99.90;;;;;;5041251;28;20063;-39
2023/09/12 10:21:33;;;;;;;9.70;8.70;;;26.10;99.90;;;;;;5042837;28;20028;-43
2023/09/12 10:24:00;;;;;;;9.45;7.68;;;26.20;99.90;;;;;;5042380;28;20541;-34
2023/09/12 10:26:28;;;;;;;9.68;8.02;;;26.20;99.90;;;;;;5040206;28;20028;-31
2023/09/12 10:28:55;;;;;;;12.05;8.18;;;26.40;99.90;;;;;;5056945;28;20044;-31
2023/09/12 10:31:23;;;;;;;9.52;8.45;;;26.30;99.90;;;;;;5047101;28;20037;-31
2023/09/12 10:33:50;;;;;;;8.65;7.75;;;26.30;99.90;;;;;;5040526;28;20040;-33
2023/09/12 10:36:18;;;;;;;8.93;8.13;;;26.70;99.90;;;;;;5026709;28;20029;-32
2023/09/12 10:38:45;;;;;;;12.32;8.70;;;26.70;99.90;;;;;;5046579;28;20804;-31
2023/09/12 10:41:15;;;;;;;8.90;7.90;;;26.90;99.90;;;;;;5050136;28;20505;-34
2023/09/12 10:43:42;;;;;;;10.10;8.57;;;26.70;99.90;;;;;;5048897;28;20048;-31
2023/09/12 10:46:08;;;;;;;8.82;7.90;;;26.80;99.90;;;;;;5043141;28;20482;-30
2023/09/12 10:48:39;;;;;;;26.10;10.35;;;26.60;99.90;;;;;;5055298;28;20527;-32
2023/09/12 10:51:07;;;;;;;10.93;8.20;;;26.70;99.90;;;;;;5049119;28;20036;-34
2023/09/12 10:53:36;;;;;;;;;;;27.10;99.90;;;;;;5046232;28;20120;-33
2023/09/12 10:56:15;;;;;;;9.23;7.60;;;27.10;99.90;;;;;;5047014;28;19938;-34
2023/09/12 10:59:36;;;;;;;7.68;6.93;;;27.40;99.90;;;;;;5048155;28;20174;-32
2023/09/12 11:01:55;;;;;;;9.35;8.00;;;27.90;99.90;;;;;;5046703;28;20033;-31
2023/09/12 11:04:23;;;;;;;9.13;7.70;;;27.90;99.90;;;;;;5042901;28;20308;-31
2023/09/12 11:06:49;;;;;;;9.52;7.50;;;28.00;99.90;;;;;;5048989;28;20035;-31
2023/09/12 11:09:23;;;;;;;8.80;7.60;;;27.90;99.90;;;;;;5042028;28;20167;-36
2023/09/12 11:12:29;;;;;;;8.18;7.32;;;27.90;99.90;;;;;;5047256;28;20033;-31
2023/09/12 11:15:06;;;;;;;8.20;7.40;;;27.80;99.90;;;;;;5043717;28;20094;-31
2023/09/12 11:17:37;;;;;;;8.17;7.23;;;27.90;99.90;;;;;;5058620;28;20040;-31
2023/09/12 11:20:09;;;;;;;7.93;7.15;;;28.30;99.90;;;;;;5044316;28;20544;-31
2023/09/12 11:22:39;;;;;;;8.68;7.63;;;28.50;99.90;;;;;;5041819;28;20025;-34
2023/09/12 11:25:19;;;;;;;10.15;7.25;;;28.40;99.90;;;;;;5060666;28;20033;-40
2023/09/12 11:28:04;;;;;;;7.78;6.97;;;28.10;99.90;;;;;;5056992;28;20370;-41
2023/09/12 11:30:34;;;;;;;10.60;7.55;;;28.00;99.90;;;;;;5042296;28;20107;-34
2023/09/12 11:33:03;;;;;;;8.10;7.30;;;28.40;99.90;;;;;;5063033;28;20031;-37
2023/09/12 11:35:29;;;;;;;10.80;7.68;;;28.00;99.90;;;;;;5058733;28;20022;-34
2023/09/12 11:37:57;;;;;;;9.93;7.05;;;28.00;99.90;;;;;;5034796;28;20094;-31
2023/09/12 11:40:42;;;;;;;7.75;6.40;;;28.30;99.90;;;;;;5043623;28;20029;-31
2023/09/12 11:43:27;;;;;;;7.10;6.28;;;28.00;99.90;;;;;;5049894;28;20111;-30
2023/09/12 11:45:55;;;;;;;6.32;5.53;;;28.20;99.90;;;;;;5045549;28;20040;-35
2023/09/12 11:48:21;;;;;;;6.45;5.78;;;28.50;99.90;;;;;;5045664;28;20032;-31
2023/09/12 11:51:08;;;;;;;9.35;6.18;;;28.50;99.90;;;;;;5048075;28;20035;-31
2023/09/12 11:53:35;;;;;;;6.28;4.97;;;28.10;99.90;;;;;;5075658;28;20036;-33
2023/09/12 11:56:01;;;;;;;;;;;28.40;99.90;;;;;;5064004;28;20070;-35
2023/09/12 11:58:27;;;;;;;7.63;4.65;;;28.50;99.90;;;;;;5047509;28;20307;-32
2023/09/12 12:00:58;;;;;;;5.32;4.80;;;28.60;99.90;;;;;;5047718;28;20037;-31
2023/09/12 12:03:26;;;;;;;5.20;4.13;;;28.30;99.90;;;;;;5043654;28;20045;-32
2023/09/12 12:05:54;;;;;;;4.53;4.07;;;28.30;99.90;;;;;;5071593;28;20410;-31
2023/09/12 12:08:20;;;;;;;7.50;4.50;;;28.50;99.90;;;;;;5045566;28;20025;-35
2023/09/12 12:10:50;;;;;;;5.53;4.68;;;28.60;99.90;;;;;;5045631;28;20560;-31
2023/09/12 12:13:18;;;;;;;7.28;5.03;;;28.60;99.90;;;;;;5046424;28;20498;-32
2023/09/12 12:15:43;;;;;;;6.00;5.38;;;28.60;99.90;;;;;;5045851;28;20332;-31
2023/09/12 12:18:09;;;;;;;9.35;5.50;;;28.40;99.90;;;;;;5050262;28;20055;-33
2023/09/12 12:20:35;;;;;;;7.53;5.43;;;28.30;99.90;;;;;;5056262;28;20025;-34
2023/09/12 12:23:01;;;;;;;8.00;5.22;;;28.40;99.90;;;;;;5052814;28;20029;-32
2023/09/12 12:25:31;;;;;;;7.13;4.55;;;28.60;99.90;;;;;;5050396;28;20033;-31
2023/09/12 12:27:57;;;;;;;8.02;4.50;;;28.50;99.90;;;;;;5041893;28;20021;-36
2023/09/12 12:30:22;;;;;;;7.15;4.70;;;28.50;99.90;;;;;;5043991;28;20036;-30
2023/09/12 12:32:51;;;;;;;7.32;4.60;;;28.80;99.90;;;;;;5043132;28;20427;-31
2023/09/12 12:35:22;;;;;;;8.32;4.47;;;29.00;99.90;;;;;;5041964;28;20032;-41
2023/09/12 12:37:53;;;;;;;5.85;5.28;;;29.00;99.90;;;;;;5061620;28;20441;-35
2023/09/12 12:40:20;;;;;;;8.98;5.35;;;29.00;99.90;;;;;;5047320;28;20039;-42
2023/09/12 12:42:46;;;;;;;6.60;4.82;;;29.00;99.90;;;;;;5042730;28;20056;-41
2023/09/12 12:45:12;;;;;;;5.70;4.57;;;28.90;99.90;;;;;;5043224;28;20067;-39
2023/09/12 12:47:38;;;;;;;6.03;4.93;;;28.90;99.90;;;;;;5043072;28;20087;-39